Time;durP1;ratioP1;P1;durP2;ratioP2;P2;SDS_P1;SDS_P2;PMS_P1;PMS_P2;Temp;Humidity;BMP_temperature;BMP_pressure;BME280_temperature;BME280_humidity;BME280_pressure;Samples;Min_cycle;Max_cycle;Signal;HPM_P1;HPM_P2
2022/10/17 04:12:18;;;;;;;;;;;;;;;18.23;65.47;97573.00;4213339;28;10283;-76
2022/10/17 04:14:21;;;;;;;;;;;;;;;18.50;65.03;97568.16;4189625;28;5772;-78
2022/10/17 04:16:24;;;;;;;;;;;;;;;18.71;64.80;97566.91;4181688;28;5785;-77
2022/10/17 04:18:27;;;;;;;;;;;;;;;18.87;64.41;97568.94;4182944;28;5750;-78
2022/10/17 04:20:30;;;;;;;;;;;;;;;18.99;63.97;97572.50;4186265;28;5742;-77
2022/10/17 04:22:33;;;;;;;;;;;;;;;19.12;63.42;97572.28;4195304;28;5888;-77
2022/10/17 04:24:35;;;;;;;;;;;;;;;19.23;63.61;97580.59;4184181;28;5713;-76
2022/10/17 04:26:38;;;;;;;;;;;;;;;19.31;63.23;97586.47;4197796;28;5922;-77
2022/10/17 04:28:42;;;;;;;;;;;;;;;19.36;63.16;97578.53;4194066;28;5742;-77
2022/10/17 04:30:45;;;;;;;;;;;;;;;19.41;63.03;97577.84;4185037;28;5704;-77
2022/10/17 04:32:51;;;;;;;;;;;;;;;19.44;62.80;97577.38;4189692;28;5788;-76
2022/10/17 04:34:54;;;;;;;;;;;;;;;19.46;62.88;97578.78;4189555;28;6457;-76
2022/10/17 04:36:57;;;;;;;;;;;;;;;19.48;62.42;97579.41;4183267;28;5731;-76
2022/10/17 04:39:01;;;;;;;;;;;;;;;19.52;62.50;97582.44;4181580;28;5807;-75
2022/10/17 04:41:06;;;;;;;;;;;;;;;19.52;62.51;97587.78;4197260;28;5796;-75
2022/10/17 04:43:09;;;;;;;;;;;;;;;19.53;62.06;97586.75;4195702;28;5725;-75
2022/10/17 04:45:13;;;;;;;;;;;;;;;19.53;62.06;97586.75;4189120;28;5727;-75
2022/10/17 04:47:16;;;;;;;;;;;;;;;19.54;62.09;97596.41;4180967;28;5765;-76
2022/10/17 04:49:19;;;;;;;;;;;;;;;19.54;61.89;97593.72;4181242;28;5734;-76
2022/10/17 04:51:22;;;;;;;;;;;;;;;19.52;62.11;97587.78;4181148;28;5734;-76
2022/10/17 04:53:30;;;;;;;;;;;;;;;19.53;61.74;97592.09;4193437;28;6449;-76
2022/10/17 04:55:37;;;;;;;;;;;;;;;19.52;61.59;97593.16;4193654;28;5708;-75
2022/10/17 04:57:40;;;;;;;;;;;;;;;19.53;61.55;97591.28;4192060;28;5721;-75
2022/10/17 04:59:43;;;;;;;;;;;;;;;19.52;61.53;97593.16;4193821;28;5724;-76
2022/10/17 05:01:48;;;;;;;;;;;;;;;19.52;61.44;97592.34;4189461;28;5857;-75
2022/10/17 05:03:53;;;;;;;;;;;;;;;19.50;61.38;97592.56;4196290;28;5725;-76
2022/10/17 05:05:55;;;;;;;;;;;;;;;19.49;61.46;97599.81;4195197;28;7765;-75
2022/10/17 05:07:58;;;;;;;;;;;;;;;19.49;61.30;97599.00;4183649;28;5894;-75
2022/10/17 05:10:01;;;;;;;;;;;;;;;19.50;61.25;97600.63;4189003;28;5816;-76
2022/10/17 05:12:04;;;;;;;;;;;;;;;19.51;60.97;97606.78;4178519;28;5907;-75
2022/10/17 05:14:12;;;;;;;;;;;;;;;19.43;61.04;97592.66;4185562;28;6463;-76
2022/10/17 05:16:15;;;;;;;;;;;;;;;19.49;60.92;97602.47;4169735;28;5880;-75
2022/10/17 05:18:19;;;;;;;;;;;;;;;19.50;60.64;97597.94;4177937;28;5736;-75
2022/10/17 05:20:21;;;;;;;;;;;;;;;19.50;60.79;97605.97;4177013;28;5783;-75
2022/10/17 05:22:24;;;;;;;;;;;;;;;19.52;60.69;97611.94;4170888;28;5793;-75
2022/10/17 05:24:27;;;;;;;;;;;;;;;19.53;60.46;97607.38;4185163;28;5799;-76
2022/10/17 05:26:30;;;;;;;;;;;;;;;19.53;60.68;97608.19;4185585;28;5742;-74
2022/10/17 05:28:33;;;;;;;;;;;;;;;19.52;60.40;97609.25;4175187;28;5736;-74
2022/10/17 05:30:36;;;;;;;;;;;;;;;19.51;60.29;97617.53;4172988;28;5734;-75
2022/10/17 05:32:39;;;;;;;;;;;;;;;19.51;60.63;97618.34;4168543;28;6504;-76
2022/10/17 05:34:43;;;;;;;;;;;;;;;19.51;60.43;97621.03;4173383;28;6820;-75
2022/10/17 05:36:46;;;;;;;;;;;;;;;19.52;60.16;97622.66;4176621;28;5132;-76
2022/10/17 05:38:50;;;;;;;;;;;;;;;19.50;60.07;97619.41;4175441;28;7737;-76
2022/10/17 05:40:59;;;;;;;;;;;;;;;19.49;60.26;97625.81;4183068;28;5908;-74
2022/10/17 05:43:01;;;;;;;;;;;;;;;19.50;60.02;97627.44;4182737;28;5721;-76
2022/10/17 05:45:05;;;;;;;;;;;;;;;19.51;60.18;97634.44;4183426;28;5899;-76
2022/10/17 05:47:09;;;;;;;;;;;;;;;19.52;60.25;97632.56;4180596;28;5713;-75
2022/10/17 05:49:12;;;;;;;;;;;;;;;19.51;60.17;97637.13;4177515;28;5812;-76
2022/10/17 05:51:35;;;;;;;;;;;;;;;19.51;59.84;97639.78;4182665;28;5824;-76
2022/10/17 05:53:40;;;;;;;;;;;;;;;19.51;59.92;97642.47;4185769;28;5804;-76
2022/10/17 05:55:42;;;;;;;;;;;;;;;19.52;59.58;97645.97;4185245;28;5819;-76
2022/10/17 05:57:45;;;;;;;;;;;;;;;19.53;59.57;97642.25;4176088;28;5840;-76
2022/10/17 05:59:48;;;;;;;;;;;;;;;19.55;59.92;97640.16;4181072;28;5708;-76
2022/10/17 06:01:51;;;;;;;;;;;;;;;19.55;59.65;97643.69;4183715;28;5867;-76
2022/10/17 06:03:54;;;;;;;;;;;;;;;19.56;59.42;97653.34;4185878;28;5713;-76
2022/10/17 06:06:02;;;;;;;;;;;;;;;19.58;59.33;97645.06;4185662;28;5982;-76
2022/10/17 06:08:07;;;;;;;;;;;;;;;19.59;59.45;97654.75;4185717;28;8540;-76
2022/10/17 06:10:13;;;;;;;;;;;;;;;19.60;59.18;97651.06;4169788;28;5760;-76
2022/10/17 06:12:16;;;;;;;;;;;;;;;19.58;59.39;97659.28;4136429;28;5878;-76
2022/10/17 06:14:19;;;;;;;;;;;;;;;19.58;58.99;97661.97;4136270;28;5886;-76
2022/10/17 06:16:22;;;;;;;;;;;;;;;19.59;59.21;97674.34;4136076;28;5755;-76
2022/10/17 06:18:25;;;;;;;;;;;;;;;19.58;58.99;97672.72;4136071;28;5371;-76
2022/10/17 06:20:28;;;;;;;;;;;;;;;19.58;58.82;97678.06;4139668;28;7744;-76
2022/10/17 06:22:31;;;;;;;;;;;;;;;19.58;58.91;97678.06;4166552;28;5730;-77
2022/10/17 06:24:35;;;;;;;;;;;;;;;19.59;58.84;97686.94;4159396;28;5829;-77
2022/10/17 06:26:38;;;;;;;;;;;;;;;19.59;58.96;97679.72;4155600;28;5849;-77
2022/10/17 06:28:41;;;;;;;;;;;;;;;19.59;59.07;97687.75;4167364;28;5730;-77
2022/10/17 06:30:44;;;;;;;;;;;;;;;19.60;58.89;97686.72;4168638;28;5858;-75
2022/10/17 06:32:47;;;;;;;;;;;;;;;19.60;58.59;97685.91;4150881;28;5890;-76
2022/10/17 06:34:50;;;;;;;;;;;;;;;19.61;58.52;97685.69;4154252;28;5737;-76
2022/10/17 06:36:53;;;;;;;;;;;;;;;19.63;58.92;97696.19;4152124;28;7816;-75
2022/10/17 06:38:56;;;;;;;;;;;;;;;19.62;58.49;97684.63;4150224;28;5879;-77
2022/10/17 06:41:07;;;;;;;;;;;;;;;19.63;58.79;97697.00;4150891;28;5756;-75
2022/10/17 06:43:10;;;;;;;;;;;;;;;19.64;58.57;97693.25;4152623;28;5854;-77
2022/10/17 06:45:12;;;;;;;;;;;;;;;19.64;58.56;97693.25;4159786;28;5730;-77
2022/10/17 06:47:15;;;;;;;;;;;;;;;19.66;58.55;97701.91;4150140;28;5835;-76
2022/10/17 06:49:22;;;;;;;;;;;;;;;19.68;58.55;97701.66;4146887;28;5457;-76
2022/10/17 06:51:24;;;;;;;;;;;;;;;19.68;58.45;97707.84;4156716;28;5751;-76
2022/10/17 06:53:28;;;;;;;;;;;;;;;19.70;58.50;97708.44;4158526;28;5822;-77
2022/10/17 06:55:31;;;;;;;;;;;;;;;19.72;58.25;97710.91;4156003;28;5871;-75
2022/10/17 06:57:35;;;;;;;;;;;;;;;19.72;58.35;97705.53;4154138;28;6911;-77
2022/10/17 06:59:38;;;;;;;;;;;;;;;19.72;58.32;97711.72;4160094;28;5734;-77
2022/10/17 07:01:42;;;;;;;;;;;;;;;19.75;58.30;97707.75;4155960;28;5759;-75
2022/10/17 07:03:49;;;;;;;;;;;;;;;19.76;58.13;97712.88;4159936;28;5850;-77
2022/10/17 07:05:52;;;;;;;;;;;;;;;19.78;58.12;97726.06;4160087;28;6430;-77
2022/10/17 07:07:56;;;;;;;;;;;;;;;19.78;57.94;97720.72;4155124;28;5749;-76
2022/10/17 07:09:59;;;;;;;;;;;;;;;19.79;57.80;97722.34;4144288;28;6009;-76
2022/10/17 07:12:05;;;;;;;;;;;;;;;19.82;58.00;97721.06;4175209;28;5705;-76
2022/10/17 07:14:09;;;;;;;;;;;;;;;19.82;57.81;97721.91;4183360;28;5732;-77
2022/10/17 07:16:13;;;;;;;;;;;;;;;19.82;57.80;97732.63;4184409;28;5741;-77
2022/10/17 07:18:16;;;;;;;;;;;;;;;19.83;57.89;97734.28;4184186;28;5766;-76
2022/10/17 07:20:19;;;;;;;;;;;;;;;19.87;57.90;97743.50;4184809;28;5712;-77
2022/10/17 07:22:24;;;;;;;;;;;;;;;19.86;57.75;97739.16;4184112;28;5825;-76
2022/10/17 07:24:27;;;;;;;;;;;;;;;19.90;58.01;97745.69;4176052;28;5774;-76
2022/10/17 07:26:30;;;;;;;;;;;;;;;19.93;57.93;97755.16;4184791;28;5712;-76
2022/10/17 07:28:34;;;;;;;;;;;;;;;19.95;57.89;97758.44;4173862;28;5755;-77
2022/10/17 07:30:38;;;;;;;;;;;;;;;19.96;57.96;97757.41;4177715;28;5741;-76
2022/10/17 07:32:41;;;;;;;;;;;;;;;19.97;57.78;97751.81;4184065;28;5803;-81
2022/10/17 07:34:44;;;;;;;;;;;;;;;19.98;57.88;97752.63;4180411;28;5892;-77
2022/10/17 07:36:47;;;;;;;;;;;;;;;19.99;57.91;97760.44;4168238;28;5817;-77
2022/10/17 07:38:50;;;;;;;;;;;;;;;20.00;57.57;97763.94;4168235;28;5750;-77
2022/10/17 07:40:56;;;;;;;;;;;;;;;20.02;57.69;97767.19;4167916;28;5738;-76
2022/10/17 07:42:59;;;;;;;;;;;;;;;20.03;58.03;97766.16;4167921;28;5143;-76
2022/10/17 07:45:02;;;;;;;;;;;;;;;20.04;57.73;97773.16;4176675;28;5701;-76
2022/10/17 07:47:06;;;;;;;;;;;;;;;20.06;57.99;97773.78;4186509;28;5973;-76
2022/10/17 07:49:09;;;;;;;;;;;;;;;20.07;57.72;97780.78;4184565;28;5784;-76
2022/10/17 07:51:11;;;;;;;;;;;;;;;20.09;58.00;97780.53;4179206;28;5755;-76
2022/10/17 07:53:15;;;;;;;;;;;;;;;20.09;57.76;97786.72;4170507;28;5743;-75
2022/10/17 07:55:18;;;;;;;;;;;;;;;20.09;57.79;97781.34;4168246;28;5750;-75
2022/10/17 07:57:20;;;;;;;;;;;;;;;20.13;58.11;97784.38;4185169;28;5811;-75
2022/10/17 07:59:24;;;;;;;;;;;;;;;20.13;58.17;97782.53;4172466;28;5709;-75
2022/10/17 08:01:27;;;;;;;;;;;;;;;20.16;58.21;97786.59;4176489;28;6595;-76
2022/10/17 08:03:34;;;;;;;;;;;;;;;20.17;58.01;97777.53;4172411;28;7148;-76
2022/10/17 08:05:37;;;;;;;;;;;;;;;20.19;58.04;97786.16;4175179;28;5857;-76
2022/10/17 08:07:40;;;;;;;;;;;;;;;20.21;58.09;97786.75;4168631;28;5826;-76
2022/10/17 08:09:43;;;;;;;;;;;;;;;20.22;58.17;97788.38;4184921;28;5718;-77
2022/10/17 08:11:46;;;;;;;;;;;;;;;20.24;58.35;97791.66;4184293;28;7241;-79
2022/10/17 08:13:49;;;;;;;;;;;;;;;20.24;58.10;97792.47;4177260;28;5113;-76
2022/10/17 08:15:52;;;;;;;;;;;;;;;20.26;58.19;97795.75;4173830;28;5728;-79
2022/10/17 08:17:55;;;;;;;;;;;;;;;20.27;58.13;97799.22;4180079;28;5750;-78
2022/10/17 08:20:00;;;;;;;;;;;;;;;20.26;58.13;97797.59;4175321;28;5093;-77
2022/10/17 08:22:03;;;;;;;;;;;;;;;20.25;58.16;97796.78;4184147;28;5803;-77
2022/10/17 08:24:07;;;;;;;;;;;;;;;20.26;58.35;97802.97;4185088;28;5432;-77
2022/10/17 08:26:12;;;;;;;;;;;;;;;20.27;58.53;97797.41;4183049;28;7758;-76
2022/10/17 08:28:15;;;;;;;;;;;;;;;20.26;58.30;97803.78;4184023;28;5729;-77
2022/10/17 08:30:18;;;;;;;;;;;;;;;20.29;58.29;97797.16;4176812;28;5833;-77
2022/10/17 08:32:22;;;;;;;;;;;;;;;20.28;58.52;97796.34;4182734;28;5701;-77
2022/10/17 08:34:25;;;;;;;;;;;;;;;20.28;58.58;97796.34;4178701;28;5738;-77
2022/10/17 08:36:29;;;;;;;;;;;;;;;20.31;58.48;97800.44;4186705;28;5808;-77
2022/10/17 08:38:33;;;;;;;;;;;;;;;20.33;58.54;97807.19;4182157;28;5709;-77
2022/10/17 08:40:41;;;;;;;;;;;;;;;20.35;58.61;97806.97;4182401;28;5803;-77
2022/10/17 08:43:04;;;;;;;;;;;;;;;20.38;58.41;97800.31;4167005;28;5742;-77
2022/10/17 08:45:15;;;;;;;;;;;;;;;20.41;58.55;97806.06;4181095;28;5705;-76
2022/10/17 08:47:27;;;;;;;;;;;;;;;20.43;58.27;97809.34;4184379;28;5700;-76
2022/10/17 08:49:39;;;;;;;;;;;;;;;20.43;58.29;97800.47;4176088;28;5859;-77
2022/10/17 08:51:50;;;;;;;;;;;;;;;20.43;58.23;97800.47;4176194;28;5746;-76
2022/10/17 08:53:59;;;;;;;;;;;;;;;20.43;58.22;97793.25;4178945;28;5727;-76
2022/10/17 08:56:07;;;;;;;;;;;;;;;20.45;58.29;97790.31;4185021;28;5717;-77
2022/10/17 08:58:20;;;;;;;;;;;;;;;20.46;58.08;97791.94;4177978;28;5720;-77
2022/10/17 09:00:24;;;;;;;;;;;;;;;20.46;58.21;97797.31;4186246;28;5713;-76
2022/10/17 09:02:41;;;;;;;;;;;;;;;20.47;58.38;97783.66;4185559;28;5796;-76
2022/10/17 09:05:09;;;;;;;;;;;;;;;20.48;58.11;97787.97;4184618;28;5899;-76
2022/10/17 09:07:21;;;;;;;;;;;;;;;20.50;57.77;97796.66;4174812;28;5722;-76
2022/10/17 09:09:35;;;;;;;;;;;;;;;20.50;58.31;97802.03;4177428;28;5812;-76
2022/10/17 09:11:48;;;;;;;;;;;;;;;20.53;57.96;97798.03;4178347;28;5963;-76
2022/10/17 09:14:00;;;;;;;;;;;;;;;20.54;58.25;97805.06;4174075;28;5701;-76
2022/10/17 09:16:19;;;;;;;;;;;;;;;20.57;58.02;97808.09;4185461;28;5716;-76
2022/10/17 09:18:27;;;;;;;;;;;;;;;20.58;58.07;97814.28;4182464;28;5756;-76
2022/10/17 09:20:33;;;;;;;;;;;;;;;20.58;57.76;97806.22;4179651;28;5800;-75
2022/10/17 09:22:42;;;;;;;;;;;;;;;20.58;57.68;97807.03;4182762;28;5716;-76
2022/10/17 09:24:53;;;;;;;;;;;;;;;20.60;58.10;97812.16;4176685;28;5993;-76
2022/10/17 09:26:56;;;;;;;;;;;;;;;20.61;57.65;97821.84;4175021;28;5731;-76
2022/10/17 09:29:00;;;;;;;;;;;;;;;20.60;57.60;97818.34;4177480;28;5709;-76
2022/10/17 09:31:06;;;;;;;;;;;;;;;20.62;57.48;97820.84;4177114;28;5796;-76
2022/10/17 09:33:12;;;;;;;;;;;;;;;20.64;57.66;97821.41;4183735;28;5776;-76
2022/10/17 09:35:37;;;;;;;;;;;;;;;20.67;57.24;97822.81;4183291;28;5725;-76
2022/10/17 09:37:41;;;;;;;;;;;;;;;20.68;57.46;97817.22;4172879;28;5825;-75
2022/10/17 09:39:45;;;;;;;;;;;;;;;20.69;57.29;97808.09;4177219;28;5709;-76
2022/10/17 09:41:50;;;;;;;;;;;;;;;20.72;56.95;97823.75;4185828;28;5709;-76
2022/10/17 09:43:56;;;;;;;;;;;;;;;20.72;57.25;97821.06;4182995;28;5808;-76
2022/10/17 09:46:07;;;;;;;;;;;;;;;20.73;56.65;97813.84;4174162;28;5819;-76
2022/10/17 09:48:19;;;;;;;;;;;;;;;20.73;56.67;97814.66;4174846;28;5797;-76
2022/10/17 09:50:26;;;;;;;;;;;;;;;20.75;56.58;97817.91;4185382;28;5821;-75
2022/10/17 09:52:34;;;;;;;;;;;;;;;20.78;56.45;97822.00;4183125;28;5855;-76
2022/10/17 09:54:44;;;;;;;;;;;;;;;20.80;56.48;97809.16;4168699;28;6015;-76
2022/10/17 09:56:58;;;;;;;;;;;;;;;20.83;56.71;97819.41;4169652;28;5726;-76
2022/10/17 09:59:01;;;;;;;;;;;;;;;20.84;56.81;97811.16;4173083;28;5667;-75
2022/10/17 10:01:16;;;;;;;;;;;;;;;20.83;56.35;97809.50;4174138;28;5824;-76
2022/10/17 10:03:26;;;;;;;;;;;;;;;20.84;56.15;97816.53;4173246;28;5887;-75
2022/10/17 10:05:29;;;;;;;;;;;;;;;20.84;56.56;97813.03;4176988;28;5725;-76
2022/10/17 10:07:35;;;;;;;;;;;;;;;20.83;56.16;97817.56;4170469;28;5817;-76
2022/10/17 10:09:38;;;;;;;;;;;;;;;20.82;56.19;97812.41;4180881;28;5757;-77
2022/10/17 10:11:50;;;;;;;;;;;;;;;20.83;55.97;97819.41;4177561;28;5713;-77
2022/10/17 10:13:53;;;;;;;;;;;;;;;20.86;55.99;97819.78;4185130;28;5801;-76
2022/10/17 10:16:13;;;;;;;;;;;;;;;20.92;55.92;97812.66;4185061;28;5709;-75
2022/10/17 10:18:32;;;;;;;;;;;;;;;20.96;56.14;97811.16;4181801;28;5717;-77
2022/10/17 10:20:37;;;;;;;;;;;;;;;20.98;56.05;97808.22;4183956;28;5849;-76
2022/10/17 10:22:40;;;;;;;;;;;;;;;20.99;56.07;97809.84;4184370;28;5961;-70
2022/10/17 10:24:43;;;;;;;;;;;;;;;20.99;55.94;97810.66;4184781;28;5729;-69
2022/10/17 10:26:52;;;;;;;;;;;;;;;21.00;55.50;97814.19;4182061;28;5724;-63
2022/10/17 10:28:58;;;;;;;;;;;;;;;21.01;55.71;97815.81;4184469;28;5732;-63
2022/10/17 10:31:04;;;;;;;;;;;;;;;21.04;55.75;97820.72;4184321;28;5076;-63
2022/10/17 10:33:11;;;;;;;;;;;;;;;21.03;55.91;97827.13;4184121;28;5733;-63
2022/10/17 10:35:20;;;;;;;;;;;;;;;21.03;56.08;97827.97;4181483;28;5829;-63
2022/10/17 10:37:26;;;;;;;;;;;;;;;21.06;55.78;97821.28;4183255;28;5712;-63
2022/10/17 10:39:49;;;;;;;;;;;;;;;21.03;55.73;97819.06;4181111;28;5762;-63
2022/10/17 10:41:54;;;;;;;;;;;;;;;21.02;56.10;97823.63;4179930;28;5720;-63
2022/10/17 10:43:57;;;;;;;;;;;;;;;21.03;55.72;97824.44;4178279;28;5729;-63
2022/10/17 10:46:00;;;;;;;;;;;;;;;21.03;56.08;97824.44;4169483;28;5730;-63
2022/10/17 10:48:16;;;;;;;;;;;;;;;21.04;56.03;97826.09;4177623;28;5829;-62
2022/10/17 10:50:28;;;;;;;;;;;;;;;21.05;55.78;97815.09;4176312;28;5710;-64
2022/10/17 10:52:35;;;;;;;;;;;;;;;21.06;56.00;97813.22;4183909;28;5847;-64
2022/10/17 10:54:43;;;;;;;;;;;;;;;21.07;56.16;97822.94;4172770;28;5789;-63
2022/10/17 10:56:50;;;;;;;;;;;;;;;21.08;56.12;97819.19;4182566;28;5808;-63
2022/10/17 10:59:02;;;;;;;;;;;;;;;21.08;56.08;97817.34;4183201;28;5716;-63
2022/10/17 11:01:11;;;;;;;;;;;;;;;21.10;56.19;97820.59;4184267;28;5811;-63
2022/10/17 11:03:21;;;;;;;;;;;;;;;21.12;56.19;97809.59;4182843;28;6395;-65
2022/10/17 11:05:40;;;;;;;;;;;;;;;21.16;56.15;97808.06;4182414;28;5811;-64
2022/10/17 11:07:51;;;;;;;;;;;;;;;21.19;56.20;97802.25;4184091;28;5910;-66
2022/10/17 11:10:00;;;;;;;;;;;;;;;21.19;56.12;97813.00;4183750;28;5717;-66
2022/10/17 11:12:11;;;;;;;;;;;;;;;21.21;56.06;97810.88;4183410;28;5704;-65
2022/10/17 11:14:19;;;;;;;;;;;;;;;21.21;56.06;97806.31;4183221;28;5725;-66
2022/10/17 11:16:32;;;;;;;;;;;;;;;21.23;56.08;97816.84;4180941;28;5792;-66
2022/10/17 11:18:44;;;;;;;;;;;;;;;21.24;55.77;97810.41;4172723;28;5916;-66
2022/10/17 11:20:54;;;;;;;;;;;;;;;21.25;55.81;97806.66;4179711;28;5730;-65
2022/10/17 11:23:04;;;;;;;;;;;;;;;21.26;55.88;97802.13;4166907;28;5738;-65
2022/10/17 11:25:20;;;;;;;;;;;;;;;21.28;55.96;97813.47;4178209;28;5756;-64
2022/10/17 11:27:24;;;;;;;;;;;;;;;21.28;55.79;97810.78;4170885;28;5734;-66
2022/10/17 11:29:39;;;;;;;;;;;;;;;21.28;55.65;97803.53;4172533;28;5845;-65
2022/10/17 11:31:50;;;;;;;;;;;;;;;21.29;55.93;97802.47;4170916;28;6000;-65
2022/10/17 11:33:57;;;;;;;;;;;;;;;21.32;55.59;97807.38;4175387;28;5845;-64
2022/10/17 11:36:04;;;;;;;;;;;;;;;21.33;56.02;97808.22;4166262;28;5749;-65
2022/10/17 11:38:16;;;;;;;;;;;;;;;21.31;55.53;97805.75;4172660;28;5870;-65
2022/10/17 11:40:28;;;;;;;;;;;;;;;21.32;55.79;97799.31;4176886;28;5712;-65
2022/10/17 11:42:36;;;;;;;;;;;;;;;21.33;55.54;97798.25;4171923;28;5897;-65
2022/10/17 11:44:41;;;;;;;;;;;;;;;21.34;55.41;97805.28;4171854;28;5963;-66
2022/10/17 11:46:50;;;;;;;;;;;;;;;21.35;55.26;97796.16;4175375;28;7743;-65
2022/10/17 11:49:02;;;;;;;;;;;;;;;21.37;55.33;97791.34;4176176;28;5754;-65
2022/10/17 11:51:09;;;;;;;;;;;;;;;21.39;55.54;97791.91;4169960;28;5898;-66
2022/10/17 11:53:43;;;;;;;;;;;;;;;21.40;55.44;97788.16;4174035;28;6011;-65
2022/10/17 11:55:46;;;;;;;;;;;;;;;21.42;54.91;97794.16;4175305;28;7739;-65
2022/10/17 11:58:01;;;;;;;;;;;;;;;21.44;55.12;97800.09;4174007;28;5726;-66
2022/10/17 12:00:22;;;;;;;;;;;;;;;21.43;54.74;97787.72;4172287;28;5930;-65
2022/10/17 12:02:35;;;;;;;;;;;;;;;21.45;54.84;97785.59;4175582;28;5868;-65
2022/10/17 12:04:53;;;;;;;;;;;;;;;21.45;54.61;97779.41;4176988;28;5821;-65
2022/10/17 12:07:11;;;;;;;;;;;;;;;21.45;54.50;97780.22;4171218;28;5730;-65
2022/10/17 12:09:22;;;;;;;;;;;;;;;21.44;54.56;97781.28;4178482;28;5882;-67
2022/10/17 12:11:38;;;;;;;;;;;;;;;21.47;54.48;97777.28;4173910;28;5887;-65
2022/10/17 12:13:53;;;;;;;;;;;;;;;21.49;54.38;97775.97;4174185;28;5861;-65
2022/10/17 12:16:18;;;;;;;;;;;;;;;21.51;54.37;97778.44;4170346;28;5841;-66
2022/10/17 12:18:26;;;;;;;;;;;;;;;21.51;54.25;97773.06;4170897;28;5839;-65
2022/10/17 12:20:31;;;;;;;;;;;;;;;21.51;53.85;97773.88;4173862;28;5819;-65
2022/10/17 12:22:35;;;;;;;;;;;;;;;21.53;54.07;97765.59;4176226;28;6663;-64
2022/10/17 12:24:41;;;;;;;;;;;;;;;21.55;54.34;97776.09;4179261;28;5810;-65
2022/10/17 12:26:44;;;;;;;;;;;;;;;21.54;53.82;97774.47;4181246;28;5758;-65
2022/10/17 12:28:48;;;;;;;;;;;;;;;21.55;53.80;97768.84;4176728;28;5729;-65
2022/10/17 12:30:54;;;;;;;;;;;;;;;21.56;54.01;97772.34;4170746;28;5751;-65
2022/10/17 12:33:17;;;;;;;;;;;;;;;21.57;54.09;97766.72;4178085;28;5795;-65
2022/10/17 12:35:25;;;;;;;;;;;;;;;21.58;53.42;97767.53;4175678;28;5092;-65
2022/10/17 12:38:15;;;;;;;;;;;;;;;21.59;53.60;97761.09;4175856;28;5801;-66
2022/10/17 12:40:50;;;;;;;;;;;;;;;21.60;53.57;97760.03;4122615;28;5771;-66
2022/10/17 12:42:52;;;;;;;;;;;;;;;21.60;53.50;97750.09;4127826;28;5786;-66
2022/10/17 12:44:55;;;;;;;;;;;;;;;21.60;53.38;97743.91;4129575;28;5861;-66
2022/10/17 12:46:58;;;;;;;;;;;;;;;21.61;53.40;97734.75;4124735;28;5912;-65
2022/10/17 12:49:19;;;;;;;;;;;;;;;21.62;53.23;97736.41;4123529;28;5843;-65
2022/10/17 12:51:24;;;;;;;;;;;;;;;21.65;53.11;97734.06;4122188;28;5895;-65
2022/10/17 12:53:51;;;;;;;;;;;;;;;21.67;53.25;97736.50;4125749;28;5876;-65
2022/10/17 12:56:00;;;;;;;;;;;;;;;21.68;53.24;97730.88;4128443;28;5879;-65
2022/10/17 12:58:06;;;;;;;;;;;;;;;21.71;53.43;97740.34;4122952;28;5884;-66
2022/10/17 13:00:18;;;;;;;;;;;;;;;21.71;52.95;97729.56;4126033;28;5908;-65
2022/10/17 13:02:24;;;;;;;;;;;;;;;21.72;53.17;97729.34;4130630;28;5910;-65
2022/10/17 13:04:30;;;;;;;;;;;;;;;21.74;53.19;97734.47;4109471;28;5865;-65
2022/10/17 13:06:39;;;;;;;;;;;;;;;21.74;52.82;97737.16;4124200;28;5805;-66
2022/10/17 13:08:49;;;;;;;;;;;;;;;21.74;52.93;97735.28;4124098;28;5857;-65
2022/10/17 13:10:58;;;;;;;;;;;;;;;21.74;52.59;97734.47;4126849;28;5785;-66
2022/10/17 13:13:08;;;;;;;;;;;;;;;21.75;52.63;97731.56;4120007;28;5872;-66
2022/10/17 13:15:16;;;;;;;;;;;;;;;21.76;52.58;97727.81;4169476;28;5746;-65
2022/10/17 13:17:26;;;;;;;;;;;;;;;21.76;52.54;97729.69;4176198;28;5970;-65
2022/10/17 13:19:39;;;;;;;;;;;;;;;21.75;52.49;97730.75;4174973;28;5795;-65
2022/10/17 13:21:50;;;;;;;;;;;;;;;21.79;51.92;97731.88;4173878;28;5805;-65
2022/10/17 13:23:53;;;;;;;;;;;;;;;21.79;52.14;97727.31;4170707;28;5971;-65
2022/10/17 13:26:07;;;;;;;;;;;;;;;21.80;51.81;97720.06;4176001;28;5811;-65
2022/10/17 13:28:13;;;;;;;;;;;;;;;21.81;52.08;97729.75;4176947;28;5883;-65
2022/10/17 13:30:28;;;;;;;;;;;;;;;21.80;51.84;97725.44;4176990;28;5709;-65
2022/10/17 13:32:37;;;;;;;;;;;;;;;21.81;51.61;97724.38;4177990;28;5866;-65
2022/10/17 13:34:41;;;;;;;;;;;;;;;21.82;52.01;97728.69;4178253;28;5837;-66
2022/10/17 13:36:48;;;;;;;;;;;;;;;21.83;51.72;97716.88;4179350;28;5829;-66
2022/10/17 13:38:50;;;;;;;;;;;;;;;21.83;52.00;97716.06;4177791;28;5849;-65
2022/10/17 13:40:53;;;;;;;;;;;;;;;21.83;51.74;97716.88;4175310;28;5837;-65
2022/10/17 13:43:21;;;;;;;;;;;;;;;21.84;51.67;97707.75;4179187;28;5724;-66
2022/10/17 13:45:30;;;;;;;;;;;;;;;21.84;51.33;97702.34;4174876;28;5807;-65
2022/10/17 13:47:37;;;;;;;;;;;;;;;21.85;51.17;97703.97;4179081;28;5713;-66
2022/10/17 13:49:44;;;;;;;;;;;;;;;21.86;51.42;97705.66;4172457;28;5721;-66
2022/10/17 13:51:50;;;;;;;;;;;;;;;21.88;51.15;97708.91;4178497;28;5865;-66
2022/10/17 13:53:53;;;;;;;;;;;;;;;21.90;50.96;97705.97;4177416;28;5705;-66
2022/10/17 13:55:59;;;;;;;;;;;;;;;21.91;51.05;97700.34;4173257;28;5826;-66
2022/10/17 13:58:22;;;;;;;;;;;;;;;21.94;51.22;97710.59;4169938;28;5734;-66
2022/10/17 14:00:26;;;;;;;;;;;;;;;21.95;51.01;97704.16;4176614;28;5704;-66
2022/10/17 14:02:30;;;;;;;;;;;;;;;21.96;51.00;97710.34;4170235;28;5883;-66
2022/10/17 14:04:33;;;;;;;;;;;;;;;21.95;50.73;97706.03;4169736;28;5722;-66
2022/10/17 14:06:57;;;;;;;;;;;;;;;21.94;51.20;97707.91;4171778;28;5861;-67
2022/10/17 14:09:02;;;;;;;;;;;;;;;21.95;50.91;97706.84;4172252;28;5813;-65
2022/10/17 14:11:15;;;;;;;;;;;;;;;21.95;51.21;97703.34;4176636;28;5877;-66
2022/10/17 14:13:22;;;;;;;;;;;;;;;21.97;50.78;97709.28;4171431;28;5827;-66
2022/10/17 14:15:27;;;;;;;;;;;;;;;21.99;51.14;97699.94;4173930;28;5750;-66
2022/10/17 14:17:30;;;;;;;;;;;;;;;21.99;51.01;97699.94;4177281;28;5894;-66
2022/10/17 14:19:37;;;;;;;;;;;;;;;21.99;51.15;97702.63;4171204;28;5859;-66
2022/10/17 14:21:40;;;;;;;;;;;;;;;21.96;51.01;97695.03;4176982;28;5875;-66
2022/10/17 14:23:48;;;;;;;;;;;;;;;21.99;50.71;97696.44;4181038;28;5762;-66
2022/10/17 14:26:05;;;;;;;;;;;;;;;22.00;51.07;97703.44;4175478;28;5723;-66
2022/10/17 14:28:14;;;;;;;;;;;;;;;22.02;50.92;97702.13;4177685;28;5796;-67
2022/10/17 14:30:34;;;;;;;;;;;;;;;22.02;50.66;97696.75;4173594;28;5919;-67
2022/10/17 14:33:00;;;;;;;;;;;;;;;22.00;50.88;97695.38;4172276;28;5800;-67
2022/10/17 14:35:05;;;;;;;;;;;;;;;22.03;51.07;97700.25;4173241;28;5721;-66
2022/10/17 14:37:42;;;;;;;;;;;;;;;22.02;51.47;97693.25;4173233;28;6494;-66
2022/10/17 14:39:49;;;;;;;;;;;;;;;22.00;51.44;97692.69;4171713;28;5730;-66
2022/10/17 14:41:53;;;;;;;;;;;;;;;22.00;51.97;97696.19;4181244;28;5899;-66
2022/10/17 14:43:59;;;;;;;;;;;;;;;22.00;51.72;97696.19;4175346;28;5822;-66
2022/10/17 14:46:02;;;;;;;;;;;;;;;22.02;52.00;97696.75;4174948;28;5717;-66
2022/10/17 14:48:11;;;;;;;;;;;;;;;22.00;51.88;97690.81;4176504;28;5907;-65
2022/10/17 14:50:23;;;;;;;;;;;;;;;21.99;52.01;97689.16;4174489;28;5828;-66
2022/10/17 14:52:31;;;;;;;;;;;;;;;21.99;52.08;97696.44;4172846;28;5897;-65
2022/10/17 14:54:36;;;;;;;;;;;;;;;21.99;52.50;97693.75;4173511;28;5837;-65
2022/10/17 14:56:42;;;;;;;;;;;;;;;22.00;52.23;97690.00;4172630;28;5864;-65
2022/10/17 14:58:45;;;;;;;;;;;;;;;21.98;52.26;97692.94;4178224;28;5764;-66
2022/10/17 15:00:48;;;;;;;;;;;;;;;21.99;52.60;97697.25;4177751;28;5833;-66
2022/10/17 15:02:52;;;;;;;;;;;;;;;21.99;52.52;97696.44;4173446;28;5924;-66
2022/10/17 15:04:55;;;;;;;;;;;;;;;21.97;52.39;97690.44;4174166;28;5805;-66
2022/10/17 15:06:58;;;;;;;;;;;;;;;21.97;52.08;97695.84;4177236;28;5808;-65
2022/10/17 15:09:01;;;;;;;;;;;;;;;21.97;52.05;97699.38;4168824;28;5766;-65
2022/10/17 15:11:04;;;;;;;;;;;;;;;21.97;52.47;97704.75;4167596;28;5840;-65
2022/10/17 15:13:10;;;;;;;;;;;;;;;21.97;52.11;97704.75;4173879;28;5796;-65
2022/10/17 15:15:32;;;;;;;;;;;;;;;21.98;52.12;97714.47;4173084;28;5705;-65
2022/10/17 15:17:35;;;;;;;;;;;;;;;21.99;52.19;97720.66;4179684;28;5792;-65
2022/10/17 15:19:38;;;;;;;;;;;;;;;21.97;52.40;97715.53;4173222;28;5817;-66
2022/10/17 15:21:41;;;;;;;;;;;;;;;21.95;52.03;97717.63;4173977;28;5797;-66
2022/10/17 15:23:49;;;;;;;;;;;;;;;21.95;52.27;97716.81;4179937;28;5879;-66